sensor_id;sensor_type;location;lat;lon;timestamp;P1;durP1;ratioP1;P2;durP2;ratioP2
12719;SDS011;6424;48.520;11.228;2023-01-01T00:02:23;82.83;;;57.33;;
12719;SDS011;6424;48.520;11.228;2023-01-01T00:05:04;71.00;;;53.50;;
12719;SDS011;6424;48.520;11.228;2023-01-01T00:07:46;51.73;;;39.83;;
12719;SDS011;6424;48.520;11.228;2023-01-01T00:10:11;34.00;;;24.40;;
12719;SDS011;6424;48.520;11.228;2023-01-01T00:13:07;27.30;;;19.27;;
12719;SDS011;6424;48.520;11.228;2023-01-01T00:15:51;22.93;;;16.77;;
12719;SDS011;6424;48.520;11.228;2023-01-01T00:18:32;34.23;;;28.17;;
12719;SDS011;6424;48.520;11.228;2023-01-01T00:21:13;54.37;;;38.23;;
12719;SDS011;6424;48.520;11.228;2023-01-01T00:23:54;57.57;;;45.27;;
12719;SDS011;6424;48.520;11.228;2023-01-01T00:26:35;65.13;;;49.90;;
12719;SDS011;6424;48.520;11.228;2023-01-01T00:29:00;61.37;;;44.83;;
12719;SDS011;6424;48.520;11.228;2023-01-01T00:31:42;51.63;;;39.90;;
12719;SDS011;6424;48.520;11.228;2023-01-01T00:34:24;58.60;;;41.97;;
12719;SDS011;6424;48.520;11.228;2023-01-01T00:37:05;61.33;;;46.50;;
12719;SDS011;6424;48.520;11.228;2023-01-01T00:39:46;60.57;;;48.20;;
12719;SDS011;6424;48.520;11.228;2023-01-01T00:42:26;59.53;;;46.37;;
12719;SDS011;6424;48.520;11.228;2023-01-01T00:45:07;42.23;;;33.30;;
12719;SDS011;6424;48.520;11.228;2023-01-01T00:47:33;36.33;;;28.43;;
12719;SDS011;6424;48.520;11.228;2023-01-01T00:50:14;32.10;;;25.63;;
12719;SDS011;6424;48.520;11.228;2023-01-01T00:52:40;35.27;;;27.93;;
12719;SDS011;6424;48.520;11.228;2023-01-01T00:55:21;31.33;;;25.47;;
12719;SDS011;6424;48.520;11.228;2023-01-01T00:58:02;34.50;;;27.47;;
12719;SDS011;6424;48.520;11.228;2023-01-01T01:00:43;35.23;;;27.50;;
12719;SDS011;6424;48.520;11.228;2023-01-01T01:03:24;43.90;;;33.63;;
12719;SDS011;6424;48.520;11.228;2023-01-01T01:06:09;39.57;;;31.77;;
12719;SDS011;6424;48.520;11.228;2023-01-01T01:08:51;47.80;;;33.50;;
12719;SDS011;6424;48.520;11.228;2023-01-01T01:11:32;37.70;;;29.13;;
12719;SDS011;6424;48.520;11.228;2023-01-01T01:14:13;41.43;;;32.20;;
12719;SDS011;6424;48.520;11.228;2023-01-01T01:16:54;40.67;;;31.77;;
12719;SDS011;6424;48.520;11.228;2023-01-01T01:19:35;37.47;;;29.43;;
12719;SDS011;6424;48.520;11.228;2023-01-01T01:22:16;41.17;;;32.57;;
12719;SDS011;6424;48.520;11.228;2023-01-01T01:24:57;35.00;;;27.33;;
12719;SDS011;6424;48.520;11.228;2023-01-01T01:27:37;30.50;;;24.13;;
12719;SDS011;6424;48.520;11.228;2023-01-01T01:30:18;41.50;;;30.70;;
12719;SDS011;6424;48.520;11.228;2023-01-01T01:32:59;33.00;;;26.83;;
12719;SDS011;6424;48.520;11.228;2023-01-01T01:35:40;44.27;;;31.03;;
12719;SDS011;6424;48.520;11.228;2023-01-01T01:38:20;44.30;;;31.83;;
12719;SDS011;6424;48.520;11.228;2023-01-01T01:41:01;31.23;;;25.43;;
12719;SDS011;6424;48.520;11.228;2023-01-01T01:43:51;34.43;;;26.73;;
12719;SDS011;6424;48.520;11.228;2023-01-01T01:46:29;40.23;;;30.07;;
12719;SDS011;6424;48.520;11.228;2023-01-01T01:49:14;39.33;;;30.17;;
12719;SDS011;6424;48.520;11.228;2023-01-01T01:51:59;35.13;;;26.47;;
12719;SDS011;6424;48.520;11.228;2023-01-01T01:54:41;36.37;;;27.40;;
12719;SDS011;6424;48.520;11.228;2023-01-01T01:57:22;35.23;;;27.43;;
12719;SDS011;6424;48.520;11.228;2023-01-01T01:59:49;38.93;;;29.40;;
12719;SDS011;6424;48.520;11.228;2023-01-01T02:02:22;31.87;;;25.90;;
12719;SDS011;6424;48.520;11.228;2023-01-01T02:05:06;28.77;;;24.27;;
12719;SDS011;6424;48.520;11.228;2023-01-01T02:07:47;37.87;;;28.93;;
12719;SDS011;6424;48.520;11.228;2023-01-01T02:10:30;35.80;;;27.53;;
12719;SDS011;6424;48.520;11.228;2023-01-01T02:13:11;33.53;;;27.10;;
12719;SDS011;6424;48.520;11.228;2023-01-01T02:16:00;35.70;;;27.37;;
12719;SDS011;6424;48.520;11.228;2023-01-01T02:22:15;39.53;;;29.17;;
12719;SDS011;6424;48.520;11.228;2023-01-01T02:28:00;34.67;;;28.43;;
12719;SDS011;6424;48.520;11.228;2023-01-01T02:31:03;42.07;;;33.13;;
12719;SDS011;6424;48.520;11.228;2023-01-01T02:33:45;42.60;;;33.03;;
12719;SDS011;6424;48.520;11.228;2023-01-01T02:36:28;42.87;;;33.87;;
12719;SDS011;6424;48.520;11.228;2023-01-01T02:39:12;42.20;;;32.83;;
12719;SDS011;6424;48.520;11.228;2023-01-01T02:41:42;40.77;;;31.47;;
12719;SDS011;6424;48.520;11.228;2023-01-01T02:44:26;42.57;;;32.57;;
12719;SDS011;6424;48.520;11.228;2023-01-01T02:47:11;40.57;;;31.33;;
12719;SDS011;6424;48.520;11.228;2023-01-01T02:50:17;37.07;;;27.77;;
12719;SDS011;6424;48.520;11.228;2023-01-01T03:11:58;33.60;;;25.80;;
12719;SDS011;6424;48.520;11.228;2023-01-01T03:17:48;27.87;;;22.30;;
12719;SDS011;6424;48.520;11.228;2023-01-01T03:20:37;27.37;;;19.97;;
12719;SDS011;6424;48.520;11.228;2023-01-01T03:23:25;28.20;;;20.77;;
12719;SDS011;6424;48.520;11.228;2023-01-01T03:26:15;23.40;;;17.80;;
12719;SDS011;6424;48.520;11.228;2023-01-01T03:28:59;26.20;;;18.87;;
12719;SDS011;6424;48.520;11.228;2023-01-01T03:31:44;23.90;;;17.20;;
12719;SDS011;6424;48.520;11.228;2023-01-01T03:34:29;21.33;;;17.43;;
12719;SDS011;6424;48.520;11.228;2023-01-01T03:37:18;22.87;;;18.17;;
12719;SDS011;6424;48.520;11.228;2023-01-01T03:40:05;24.17;;;18.13;;
12719;SDS011;6424;48.520;11.228;2023-01-01T03:42:33;23.83;;;18.53;;
12719;SDS011;6424;48.520;11.228;2023-01-01T03:45:20;25.33;;;18.90;;
12719;SDS011;6424;48.520;11.228;2023-01-01T03:48:22;21.73;;;16.13;;
12719;SDS011;6424;48.520;11.228;2023-01-01T03:51:06;23.20;;;17.90;;
12719;SDS011;6424;48.520;11.228;2023-01-01T03:53:55;19.77;;;15.50;;
12719;SDS011;6424;48.520;11.228;2023-01-01T03:56:29;22.47;;;16.57;;
12719;SDS011;6424;48.520;11.228;2023-01-01T03:59:19;19.43;;;15.60;;
12719;SDS011;6424;48.520;11.228;2023-01-01T04:02:03;18.67;;;15.07;;
12719;SDS011;6424;48.520;11.228;2023-01-01T04:04:48;22.53;;;16.63;;
12719;SDS011;6424;48.520;11.228;2023-01-01T04:07:29;19.27;;;14.20;;
12719;SDS011;6424;48.520;11.228;2023-01-01T04:10:11;17.73;;;14.27;;
12719;SDS011;6424;48.520;11.228;2023-01-01T04:12:57;21.53;;;15.90;;
12719;SDS011;6424;48.520;11.228;2023-01-01T04:15:26;21.03;;;15.77;;
12719;SDS011;6424;48.520;11.228;2023-01-01T04:18:07;21.40;;;16.40;;
12719;SDS011;6424;48.520;11.228;2023-01-01T04:20:48;18.60;;;14.60;;
12719;SDS011;6424;48.520;11.228;2023-01-01T04:23:29;16.30;;;13.17;;
12719;SDS011;6424;48.520;11.228;2023-01-01T04:26:13;20.60;;;16.53;;
12719;SDS011;6424;48.520;11.228;2023-01-01T04:28:54;19.50;;;15.03;;
12719;SDS011;6424;48.520;11.228;2023-01-01T04:31:20;18.77;;;15.57;;
12719;SDS011;6424;48.520;11.228;2023-01-01T04:34:00;21.97;;;16.57;;
12719;SDS011;6424;48.520;11.228;2023-01-01T04:36:41;23.70;;;16.93;;
12719;SDS011;6424;48.520;11.228;2023-01-01T04:39:22;22.73;;;16.83;;
12719;SDS011;6424;48.520;11.228;2023-01-01T04:42:03;24.10;;;18.93;;
12719;SDS011;6424;48.520;11.228;2023-01-01T04:44:44;25.33;;;20.23;;
12719;SDS011;6424;48.520;11.228;2023-01-01T04:47:24;28.13;;;21.43;;
12719;SDS011;6424;48.520;11.228;2023-01-01T04:50:06;25.10;;;20.50;;
12719;SDS011;6424;48.520;11.228;2023-01-01T04:52:47;28.63;;;22.80;;
12719;SDS011;6424;48.520;11.228;2023-01-01T04:55:30;30.77;;;24.40;;
12719;SDS011;6424;48.520;11.228;2023-01-01T04:58:12;31.07;;;24.93;;
12719;SDS011;6424;48.520;11.228;2023-01-01T05:00:53;33.40;;;24.23;;
12719;SDS011;6424;48.520;11.228;2023-01-01T05:03:34;34.53;;;26.00;;
12719;SDS011;6424;48.520;11.228;2023-01-01T05:06:05;28.50;;;21.63;;
12719;SDS011;6424;48.520;11.228;2023-01-01T05:08:49;27.77;;;22.50;;
12719;SDS011;6424;48.520;11.228;2023-01-01T05:11:31;27.17;;;21.47;;
12719;SDS011;6424;48.520;11.228;2023-01-01T05:14:12;29.80;;;23.70;;
12719;SDS011;6424;48.520;11.228;2023-01-01T05:16:53;30.73;;;23.63;;
12719;SDS011;6424;48.520;11.228;2023-01-01T05:19:34;28.73;;;23.23;;
12719;SDS011;6424;48.520;11.228;2023-01-01T05:22:14;25.90;;;19.93;;
12719;SDS011;6424;48.520;11.228;2023-01-01T05:24:55;29.17;;;21.30;;
12719;SDS011;6424;48.520;11.228;2023-01-01T05:27:36;24.73;;;19.43;;
12719;SDS011;6424;48.520;11.228;2023-01-01T05:30:17;27.83;;;19.53;;
12719;SDS011;6424;48.520;11.228;2023-01-01T05:32:58;26.73;;;20.33;;
12719;SDS011;6424;48.520;11.228;2023-01-01T05:35:38;25.10;;;19.37;;
12719;SDS011;6424;48.520;11.228;2023-01-01T05:38:19;25.53;;;19.03;;
12719;SDS011;6424;48.520;11.228;2023-01-01T05:40:45;22.67;;;18.00;;
12719;SDS011;6424;48.520;11.228;2023-01-01T05:43:26;24.73;;;19.37;;
12719;SDS011;6424;48.520;11.228;2023-01-01T05:46:11;20.97;;;16.27;;
12719;SDS011;6424;48.520;11.228;2023-01-01T05:49:12;20.13;;;16.13;;
12719;SDS011;6424;48.520;11.228;2023-01-01T05:51:53;16.43;;;12.50;;
12719;SDS011;6424;48.520;11.228;2023-01-01T05:54:34;14.37;;;11.20;;
12719;SDS011;6424;48.520;11.228;2023-01-01T05:57:14;12.93;;;11.03;;
12719;SDS011;6424;48.520;11.228;2023-01-01T05:59:55;13.53;;;11.07;;
12719;SDS011;6424;48.520;11.228;2023-01-01T06:02:36;13.07;;;9.70;;
12719;SDS011;6424;48.520;11.228;2023-01-01T06:05:17;15.43;;;11.63;;
12719;SDS011;6424;48.520;11.228;2023-01-01T06:07:57;14.50;;;10.90;;
12719;SDS011;6424;48.520;11.228;2023-01-01T06:10:38;14.17;;;10.87;;
12719;SDS011;6424;48.520;11.228;2023-01-01T06:13:19;14.70;;;10.37;;
12719;SDS011;6424;48.520;11.228;2023-01-01T06:16:00;13.30;;;10.43;;
12719;SDS011;6424;48.520;11.228;2023-01-01T06:18:41;12.43;;;9.37;;
12719;SDS011;6424;48.520;11.228;2023-01-01T06:21:24;13.70;;;9.13;;
12719;SDS011;6424;48.520;11.228;2023-01-01T06:23:51;11.77;;;9.60;;
12719;SDS011;6424;48.520;11.228;2023-01-01T06:26:33;15.73;;;11.17;;
12719;SDS011;6424;48.520;11.228;2023-01-01T06:29:14;15.10;;;11.40;;
12719;SDS011;6424;48.520;11.228;2023-01-01T06:31:40;16.40;;;11.93;;
12719;SDS011;6424;48.520;11.228;2023-01-01T06:34:21;13.50;;;11.40;;
12719;SDS011;6424;48.520;11.228;2023-01-01T06:37:01;13.30;;;10.30;;
12719;SDS011;6424;48.520;11.228;2023-01-01T06:39:42;11.90;;;9.60;;
12719;SDS011;6424;48.520;11.228;2023-01-01T06:42:23;15.37;;;10.47;;
12719;SDS011;6424;48.520;11.228;2023-01-01T06:45:04;12.07;;;10.00;;
12719;SDS011;6424;48.520;11.228;2023-01-01T06:47:45;14.30;;;10.50;;
12719;SDS011;6424;48.520;11.228;2023-01-01T06:50:26;16.47;;;10.33;;
12719;SDS011;6424;48.520;11.228;2023-01-01T06:53:06;15.00;;;10.77;;
12719;SDS011;6424;48.520;11.228;2023-01-01T06:55:47;16.10;;;11.80;;
12719;SDS011;6424;48.520;11.228;2023-01-01T06:58:28;16.37;;;13.30;;
12719;SDS011;6424;48.520;11.228;2023-01-01T07:01:11;14.23;;;11.40;;
12719;SDS011;6424;48.520;11.228;2023-01-01T07:03:58;15.83;;;10.93;;
12719;SDS011;6424;48.520;11.228;2023-01-01T07:06:41;15.27;;;11.60;;
12719;SDS011;6424;48.520;11.228;2023-01-01T07:09:22;14.43;;;10.67;;
12719;SDS011;6424;48.520;11.228;2023-01-01T07:12:04;15.17;;;10.27;;
12719;SDS011;6424;48.520;11.228;2023-01-01T07:14:45;13.13;;;9.40;;
12719;SDS011;6424;48.520;11.228;2023-01-01T07:17:26;14.10;;;10.00;;
12719;SDS011;6424;48.520;11.228;2023-01-01T07:20:06;13.23;;;9.07;;
12719;SDS011;6424;48.520;11.228;2023-01-01T07:22:48;11.13;;;9.03;;
12719;SDS011;6424;48.520;11.228;2023-01-01T07:25:28;12.87;;;8.37;;
12719;SDS011;6424;48.520;11.228;2023-01-01T07:28:09;11.83;;;9.20;;
12719;SDS011;6424;48.520;11.228;2023-01-01T07:30:51;9.20;;;7.50;;
12719;SDS011;6424;48.520;11.228;2023-01-01T07:33:33;10.63;;;8.33;;
12719;SDS011;6424;48.520;11.228;2023-01-01T07:36:14;9.87;;;7.70;;
12719;SDS011;6424;48.520;11.228;2023-01-01T07:38:54;10.97;;;8.50;;
12719;SDS011;6424;48.520;11.228;2023-01-01T07:41:35;12.27;;;8.33;;
12719;SDS011;6424;48.520;11.228;2023-01-01T07:44:16;10.67;;;8.23;;
12719;SDS011;6424;48.520;11.228;2023-01-01T07:46:42;10.00;;;8.13;;
12719;SDS011;6424;48.520;11.228;2023-01-01T07:49:22;10.80;;;8.97;;
12719;SDS011;6424;48.520;11.228;2023-01-01T07:52:03;10.73;;;8.60;;
12719;SDS011;6424;48.520;11.228;2023-01-01T07:54:44;13.60;;;9.07;;
12719;SDS011;6424;48.520;11.228;2023-01-01T07:57:25;9.90;;;8.27;;
12719;SDS011;6424;48.520;11.228;2023-01-01T08:00:06;11.67;;;9.07;;
12719;SDS011;6424;48.520;11.228;2023-01-01T08:02:47;12.50;;;8.30;;
12719;SDS011;6424;48.520;11.228;2023-01-01T08:05:29;9.83;;;7.30;;
12719;SDS011;6424;48.520;11.228;2023-01-01T08:08:10;10.00;;;7.23;;
12719;SDS011;6424;48.520;11.228;2023-01-01T08:10:36;8.23;;;6.87;;
12719;SDS011;6424;48.520;11.228;2023-01-01T08:13:17;7.67;;;5.53;;
12719;SDS011;6424;48.520;11.228;2023-01-01T08:15:58;7.93;;;6.27;;
12719;SDS011;6424;48.520;11.228;2023-01-01T08:18:39;8.13;;;6.53;;
12719;SDS011;6424;48.520;11.228;2023-01-01T08:21:20;7.97;;;5.60;;
12719;SDS011;6424;48.520;11.228;2023-01-01T08:24:00;8.93;;;6.33;;
12719;SDS011;6424;48.520;11.228;2023-01-01T08:26:41;7.17;;;5.77;;
12719;SDS011;6424;48.520;11.228;2023-01-01T08:29:22;7.30;;;6.00;;
12719;SDS011;6424;48.520;11.228;2023-01-01T08:32:03;9.20;;;6.40;;
12719;SDS011;6424;48.520;11.228;2023-01-01T08:34:44;8.13;;;5.70;;
12719;SDS011;6424;48.520;11.228;2023-01-01T08:37:24;7.83;;;5.90;;
12719;SDS011;6424;48.520;11.228;2023-01-01T08:40:05;9.27;;;6.63;;
12719;SDS011;6424;48.520;11.228;2023-01-01T08:42:47;7.53;;;6.07;;
12719;SDS011;6424;48.520;11.228;2023-01-01T08:45:28;8.00;;;6.10;;
12719;SDS011;6424;48.520;11.228;2023-01-01T08:48:08;9.23;;;6.70;;
12719;SDS011;6424;48.520;11.228;2023-01-01T08:50:53;7.07;;;5.83;;
12719;SDS011;6424;48.520;11.228;2023-01-01T08:53:34;7.70;;;5.47;;
12719;SDS011;6424;48.520;11.228;2023-01-01T08:56:15;7.47;;;5.43;;
12719;SDS011;6424;48.520;11.228;2023-01-01T08:58:56;7.63;;;4.80;;
12719;SDS011;6424;48.520;11.228;2023-01-01T09:01:37;5.40;;;4.60;;
12719;SDS011;6424;48.520;11.228;2023-01-01T09:04:18;5.47;;;4.40;;
12719;SDS011;6424;48.520;11.228;2023-01-01T09:06:58;6.20;;;4.53;;
12719;SDS011;6424;48.520;11.228;2023-01-01T09:09:39;6.00;;;4.23;;
12719;SDS011;6424;48.520;11.228;2023-01-01T09:12:20;5.37;;;4.70;;
12719;SDS011;6424;48.520;11.228;2023-01-01T09:15:01;6.43;;;4.80;;
12719;SDS011;6424;48.520;11.228;2023-01-01T09:17:42;5.20;;;4.00;;
12719;SDS011;6424;48.520;11.228;2023-01-01T09:20:23;5.03;;;4.50;;
12719;SDS011;6424;48.520;11.228;2023-01-01T09:22:49;7.20;;;4.07;;
12719;SDS011;6424;48.520;11.228;2023-01-01T09:25:29;5.40;;;3.97;;
12719;SDS011;6424;48.520;11.228;2023-01-01T09:28:11;4.30;;;3.83;;
12719;SDS011;6424;48.520;11.228;2023-01-01T09:30:53;5.70;;;3.80;;
12719;SDS011;6424;48.520;11.228;2023-01-01T09:33:34;5.80;;;3.83;;
12719;SDS011;6424;48.520;11.228;2023-01-01T09:36:26;7.17;;;4.07;;
12719;SDS011;6424;48.520;11.228;2023-01-01T09:39:10;6.77;;;4.17;;
12719;SDS011;6424;48.520;11.228;2023-01-01T09:47:55;5.00;;;3.50;;
12719;SDS011;6424;48.520;11.228;2023-01-01T09:50:40;4.20;;;3.70;;
12719;SDS011;6424;48.520;11.228;2023-01-01T09:53:12;6.07;;;4.60;;
12719;SDS011;6424;48.520;11.228;2023-01-01T09:56:08;6.43;;;4.47;;
12719;SDS011;6424;48.520;11.228;2023-01-01T09:58:56;5.20;;;4.30;;
12719;SDS011;6424;48.520;11.228;2023-01-01T10:18:03;7.07;;;4.93;;
12719;SDS011;6424;48.520;11.228;2023-01-01T10:21:06;8.37;;;5.47;;
12719;SDS011;6424;48.520;11.228;2023-01-01T10:23:59;6.13;;;4.70;;
12719;SDS011;6424;48.520;11.228;2023-01-01T10:26:44;5.90;;;4.93;;
12719;SDS011;6424;48.520;11.228;2023-01-01T10:29:42;5.87;;;4.57;;
12719;SDS011;6424;48.520;11.228;2023-01-01T10:32:31;8.40;;;5.10;;
12719;SDS011;6424;48.520;11.228;2023-01-01T10:35:15;5.57;;;4.73;;
12719;SDS011;6424;48.520;11.228;2023-01-01T10:38:02;6.20;;;4.33;;
12719;SDS011;6424;48.520;11.228;2023-01-01T10:40:44;5.07;;;4.03;;
12719;SDS011;6424;48.520;11.228;2023-01-01T10:43:25;5.53;;;4.50;;
12719;SDS011;6424;48.520;11.228;2023-01-01T10:46:08;5.60;;;4.33;;
12719;SDS011;6424;48.520;11.228;2023-01-01T10:49:02;5.60;;;3.77;;
12719;SDS011;6424;48.520;11.228;2023-01-01T10:51:44;4.30;;;3.63;;
12719;SDS011;6424;48.520;11.228;2023-01-01T11:00:25;4.50;;;3.37;;
12719;SDS011;6424;48.520;11.228;2023-01-01T11:03:10;4.83;;;3.80;;
12719;SDS011;6424;48.520;11.228;2023-01-01T11:08:54;5.03;;;3.17;;
12719;SDS011;6424;48.520;11.228;2023-01-01T11:11:41;4.43;;;3.70;;
12719;SDS011;6424;48.520;11.228;2023-01-01T11:17:24;3.90;;;3.00;;
12719;SDS011;6424;48.520;11.228;2023-01-01T11:20:14;3.87;;;3.03;;
12719;SDS011;6424;48.520;11.228;2023-01-01T11:22:43;4.50;;;2.93;;
12719;SDS011;6424;48.520;11.228;2023-01-01T11:25:30;3.90;;;3.10;;
12719;SDS011;6424;48.520;11.228;2023-01-01T11:31:00;3.60;;;2.73;;
12719;SDS011;6424;48.520;11.228;2023-01-01T11:33:42;5.03;;;2.57;;
12719;SDS011;6424;48.520;11.228;2023-01-01T11:36:30;2.70;;;2.50;;
12719;SDS011;6424;48.520;11.228;2023-01-01T11:41:56;2.80;;;2.20;;
12719;SDS011;6424;48.520;11.228;2023-01-01T11:44:41;4.63;;;2.70;;
12719;SDS011;6424;48.520;11.228;2023-01-01T11:47:28;3.53;;;2.27;;
12719;SDS011;6424;48.520;11.228;2023-01-01T11:52:53;3.47;;;2.13;;
12719;SDS011;6424;48.520;11.228;2023-01-01T11:55:41;3.33;;;2.30;;
12719;SDS011;6424;48.520;11.228;2023-01-01T12:04:31;3.40;;;1.90;;
12719;SDS011;6424;48.520;11.228;2023-01-01T12:07:29;2.90;;;1.90;;
12719;SDS011;6424;48.520;11.228;2023-01-01T12:13:06;3.97;;;2.40;;
12719;SDS011;6424;48.520;11.228;2023-01-01T12:15:57;4.30;;;2.30;;
12719;SDS011;6424;48.520;11.228;2023-01-01T12:21:39;3.37;;;2.23;;
12719;SDS011;6424;48.520;11.228;2023-01-01T12:24:23;4.50;;;2.10;;
12719;SDS011;6424;48.520;11.228;2023-01-01T12:30:10;4.70;;;2.17;;
12719;SDS011;6424;48.520;11.228;2023-01-01T12:42:25;2.77;;;2.47;;
12719;SDS011;6424;48.520;11.228;2023-01-01T12:50:47;4.97;;;2.40;;
12719;SDS011;6424;48.520;11.228;2023-01-01T12:56:58;5.00;;;2.37;;
12719;SDS011;6424;48.520;11.228;2023-01-01T12:59:46;2.50;;;1.53;;
12719;SDS011;6424;48.520;11.228;2023-01-01T13:02:29;4.57;;;1.87;;
12719;SDS011;6424;48.520;11.228;2023-01-01T13:05:21;4.20;;;2.00;;
12719;SDS011;6424;48.520;11.228;2023-01-01T13:08:06;2.43;;;1.83;;
12719;SDS011;6424;48.520;11.228;2023-01-01T13:11:05;2.43;;;1.83;;
12719;SDS011;6424;48.520;11.228;2023-01-01T13:13:47;4.10;;;2.10;;
12719;SDS011;6424;48.520;11.228;2023-01-01T13:16:35;2.63;;;1.73;;
12719;SDS011;6424;48.520;11.228;2023-01-01T13:19:34;3.87;;;1.90;;
12719;SDS011;6424;48.520;11.228;2023-01-01T13:33:26;2.53;;;1.50;;
12719;SDS011;6424;48.520;11.228;2023-01-01T13:38:51;2.53;;;1.50;;
12719;SDS011;6424;48.520;11.228;2023-01-01T13:41:42;2.40;;;1.50;;
12719;SDS011;6424;48.520;11.228;2023-01-01T13:44:26;2.33;;;1.87;;
12719;SDS011;6424;48.520;11.228;2023-01-01T13:50:12;3.70;;;1.90;;
12719;SDS011;6424;48.520;11.228;2023-01-01T14:02:24;4.27;;;2.20;;
12719;SDS011;6424;48.520;11.228;2023-01-01T14:05:31;2.93;;;2.10;;
12719;SDS011;6424;48.520;11.228;2023-01-01T14:08:33;2.23;;;1.93;;
12719;SDS011;6424;48.520;11.228;2023-01-01T14:11:16;3.37;;;2.00;;
12719;SDS011;6424;48.520;11.228;2023-01-01T14:14:16;3.73;;;1.73;;
12719;SDS011;6424;48.520;11.228;2023-01-01T14:17:05;2.63;;;1.83;;
12719;SDS011;6424;48.520;11.228;2023-01-01T14:19:31;3.80;;;1.90;;
12719;SDS011;6424;48.520;11.228;2023-01-01T14:22:13;2.67;;;1.80;;
12719;SDS011;6424;48.520;11.228;2023-01-01T14:24:56;2.63;;;1.80;;
12719;SDS011;6424;48.520;11.228;2023-01-01T14:27:37;4.87;;;2.57;;
12719;SDS011;6424;48.520;11.228;2023-01-01T14:30:18;4.67;;;3.20;;
12719;SDS011;6424;48.520;11.228;2023-01-01T14:33:00;4.17;;;2.27;;
12719;SDS011;6424;48.520;11.228;2023-01-01T14:35:27;4.23;;;3.03;;
12719;SDS011;6424;48.520;11.228;2023-01-01T14:38:15;4.60;;;3.60;;
12719;SDS011;6424;48.520;11.228;2023-01-01T14:44:08;3.57;;;2.53;;
12719;SDS011;6424;48.520;11.228;2023-01-01T14:46:52;2.80;;;2.17;;
12719;SDS011;6424;48.520;11.228;2023-01-01T14:49:35;2.40;;;1.67;;
12719;SDS011;6424;48.520;11.228;2023-01-01T14:52:24;2.20;;;1.80;;
12719;SDS011;6424;48.520;11.228;2023-01-01T14:55:11;3.93;;;2.70;;
12719;SDS011;6424;48.520;11.228;2023-01-01T14:57:57;4.10;;;2.00;;
12719;SDS011;6424;48.520;11.228;2023-01-01T15:00:41;5.07;;;2.40;;
12719;SDS011;6424;48.520;11.228;2023-01-01T15:03:22;4.50;;;2.50;;
12719;SDS011;6424;48.520;11.228;2023-01-01T15:06:03;2.50;;;2.13;;
12719;SDS011;6424;48.520;11.228;2023-01-01T15:08:49;3.30;;;2.40;;
12719;SDS011;6424;48.520;11.228;2023-01-01T15:11:30;3.00;;;2.30;;
12719;SDS011;6424;48.520;11.228;2023-01-01T15:14:31;3.83;;;2.33;;
12719;SDS011;6424;48.520;11.228;2023-01-01T15:17:06;6.13;;;2.50;;
12719;SDS011;6424;48.520;11.228;2023-01-01T15:20:03;4.47;;;2.30;;
12719;SDS011;6424;48.520;11.228;2023-01-01T15:22:46;3.37;;;2.33;;
12719;SDS011;6424;48.520;11.228;2023-01-01T15:25:28;3.17;;;2.50;;
12719;SDS011;6424;48.520;11.228;2023-01-01T15:28:18;3.40;;;2.67;;
12719;SDS011;6424;48.520;11.228;2023-01-01T15:30:59;3.77;;;2.27;;
12719;SDS011;6424;48.520;11.228;2023-01-01T15:33:45;3.47;;;2.07;;
12719;SDS011;6424;48.520;11.228;2023-01-01T15:36:27;5.27;;;2.30;;
12719;SDS011;6424;48.520;11.228;2023-01-01T15:39:10;3.17;;;2.30;;
12719;SDS011;6424;48.520;11.228;2023-01-01T15:44:28;3.30;;;2.40;;
12719;SDS011;6424;48.520;11.228;2023-01-01T15:47:13;3.27;;;2.20;;
12719;SDS011;6424;48.520;11.228;2023-01-01T15:50:05;4.17;;;2.37;;
12719;SDS011;6424;48.520;11.228;2023-01-01T15:52:54;3.90;;;2.33;;
12719;SDS011;6424;48.520;11.228;2023-01-01T15:55:41;4.50;;;2.47;;
12719;SDS011;6424;48.520;11.228;2023-01-01T16:01:22;5.90;;;3.23;;
12719;SDS011;6424;48.520;11.228;2023-01-01T16:04:24;4.17;;;2.97;;
12719;SDS011;6424;48.520;11.228;2023-01-01T16:07:06;3.97;;;3.10;;
12719;SDS011;6424;48.520;11.228;2023-01-01T16:09:55;4.57;;;3.63;;
12719;SDS011;6424;48.520;11.228;2023-01-01T16:12:36;4.20;;;3.80;;
12719;SDS011;6424;48.520;11.228;2023-01-01T16:15:17;9.27;;;7.87;;
12719;SDS011;6424;48.520;11.228;2023-01-01T16:17:58;7.50;;;6.17;;
12719;SDS011;6424;48.520;11.228;2023-01-01T16:20:38;7.23;;;5.83;;
12719;SDS011;6424;48.520;11.228;2023-01-01T16:23:04;8.83;;;7.93;;
12719;SDS011;6424;48.520;11.228;2023-01-01T16:25:45;9.63;;;8.73;;
12719;SDS011;6424;48.520;11.228;2023-01-01T16:28:26;5.20;;;4.27;;
12719;SDS011;6424;48.520;11.228;2023-01-01T16:31:11;4.43;;;3.70;;
12719;SDS011;6424;48.520;11.228;2023-01-01T16:33:57;4.67;;;3.17;;
12719;SDS011;6424;48.520;11.228;2023-01-01T16:36:38;2.83;;;2.50;;
12719;SDS011;6424;48.520;11.228;2023-01-01T16:39:19;5.13;;;2.43;;
12719;SDS011;6424;48.520;11.228;2023-01-01T16:42:00;4.30;;;2.80;;
12719;SDS011;6424;48.520;11.228;2023-01-01T16:44:41;3.80;;;2.60;;
12719;SDS011;6424;48.520;11.228;2023-01-01T16:47:22;3.47;;;3.17;;
12719;SDS011;6424;48.520;11.228;2023-01-01T16:50:02;6.80;;;5.33;;
12719;SDS011;6424;48.520;11.228;2023-01-01T16:52:43;10.30;;;8.77;;
12719;SDS011;6424;48.520;11.228;2023-01-01T16:55:24;10.20;;;9.17;;
12719;SDS011;6424;48.520;11.228;2023-01-01T16:58:05;7.03;;;4.13;;
12719;SDS011;6424;48.520;11.228;2023-01-01T17:00:46;4.23;;;3.20;;
12719;SDS011;6424;48.520;11.228;2023-01-01T17:03:27;4.27;;;2.50;;
12719;SDS011;6424;48.520;11.228;2023-01-01T17:06:08;3.43;;;2.30;;
12719;SDS011;6424;48.520;11.228;2023-01-01T17:08:50;2.83;;;2.00;;
12719;SDS011;6424;48.520;11.228;2023-01-01T17:11:30;59.07;;;23.03;;
12719;SDS011;6424;48.520;11.228;2023-01-01T17:14:12;16.87;;;10.03;;
12719;SDS011;6424;48.520;11.228;2023-01-01T17:16:53;6.43;;;4.63;;
12719;SDS011;6424;48.520;11.228;2023-01-01T17:19:35;5.33;;;4.63;;
12719;SDS011;6424;48.520;11.228;2023-01-01T17:22:16;18.10;;;12.47;;
12719;SDS011;6424;48.520;11.228;2023-01-01T17:24:57;27.80;;;20.27;;
12719;SDS011;6424;48.520;11.228;2023-01-01T17:27:37;18.43;;;15.00;;
12719;SDS011;6424;48.520;11.228;2023-01-01T17:30:18;15.40;;;13.90;;
12719;SDS011;6424;48.520;11.228;2023-01-01T17:32:59;4.60;;;4.20;;
12719;SDS011;6424;48.520;11.228;2023-01-01T17:35:40;3.47;;;2.83;;
12719;SDS011;6424;48.520;11.228;2023-01-01T17:38:20;3.67;;;2.73;;
12719;SDS011;6424;48.520;11.228;2023-01-01T17:41:08;3.40;;;2.80;;
12719;SDS011;6424;48.520;11.228;2023-01-01T17:43:51;4.37;;;3.33;;
12719;SDS011;6424;48.520;11.228;2023-01-01T17:46:32;42.97;;;21.57;;
12719;SDS011;6424;48.520;11.228;2023-01-01T17:49:12;82.27;;;39.80;;
12719;SDS011;6424;48.520;11.228;2023-01-01T17:51:53;10.33;;;6.73;;
12719;SDS011;6424;48.520;11.228;2023-01-01T17:54:34;7.80;;;4.77;;
12719;SDS011;6424;48.520;11.228;2023-01-01T17:57:15;6.57;;;4.17;;
12719;SDS011;6424;48.520;11.228;2023-01-01T17:59:56;5.20;;;3.93;;
12719;SDS011;6424;48.520;11.228;2023-01-01T18:02:38;3.73;;;2.97;;
12719;SDS011;6424;48.520;11.228;2023-01-01T18:05:19;2.63;;;2.43;;
12719;SDS011;6424;48.520;11.228;2023-01-01T18:07:45;3.47;;;2.60;;
12719;SDS011;6424;48.520;11.228;2023-01-01T18:10:25;2.60;;;2.37;;
12719;SDS011;6424;48.520;11.228;2023-01-01T18:13:07;4.07;;;2.87;;
12719;SDS011;6424;48.520;11.228;2023-01-01T18:15:48;4.63;;;3.20;;
12719;SDS011;6424;48.520;11.228;2023-01-01T18:18:28;5.63;;;3.57;;
12719;SDS011;6424;48.520;11.228;2023-01-01T18:21:13;3.90;;;3.00;;
12719;SDS011;6424;48.520;11.228;2023-01-01T18:24:00;3.23;;;2.50;;
12719;SDS011;6424;48.520;11.228;2023-01-01T18:26:41;3.20;;;2.80;;